sensor_id;sensor_type;location;lat;lon;timestamp;P1;durP1;ratioP1;P2;durP2;ratioP2
14040;SDS011;7095;51.388;6.196;2023-10-13T00:02:15;30.00;;;18.53;;
14040;SDS011;7095;51.388;6.196;2023-10-13T00:04:46;30.47;;;17.80;;
14040;SDS011;7095;51.388;6.196;2023-10-13T00:07:16;24.97;;;17.50;;
14040;SDS011;7095;51.388;6.196;2023-10-13T00:09:45;27.23;;;17.00;;
14040;SDS011;7095;51.388;6.196;2023-10-13T00:12:13;27.07;;;18.73;;
14040;SDS011;7095;51.388;6.196;2023-10-13T00:14:47;28.23;;;18.70;;
14040;SDS011;7095;51.388;6.196;2023-10-13T00:17:17;27.57;;;17.57;;
14040;SDS011;7095;51.388;6.196;2023-10-13T00:19:47;26.97;;;17.73;;
14040;SDS011;7095;51.388;6.196;2023-10-13T00:22:20;23.17;;;17.07;;
14040;SDS011;7095;51.388;6.196;2023-10-13T00:24:50;30.73;;;17.80;;
14040;SDS011;7095;51.388;6.196;2023-10-13T00:27:25;29.93;;;17.80;;
14040;SDS011;7095;51.388;6.196;2023-10-13T00:29:57;26.87;;;18.00;;
14040;SDS011;7095;51.388;6.196;2023-10-13T00:32:44;32.93;;;18.73;;
14040;SDS011;7095;51.388;6.196;2023-10-13T00:35:19;29.80;;;17.80;;
14040;SDS011;7095;51.388;6.196;2023-10-13T00:37:54;25.20;;;18.60;;
14040;SDS011;7095;51.388;6.196;2023-10-13T00:40:25;28.77;;;17.90;;
14040;SDS011;7095;51.388;6.196;2023-10-13T00:43:11;26.73;;;16.80;;
14040;SDS011;7095;51.388;6.196;2023-10-13T00:45:57;23.33;;;17.13;;
14040;SDS011;7095;51.388;6.196;2023-10-13T00:48:35;31.07;;;18.93;;
14040;SDS011;7095;51.388;6.196;2023-10-13T00:51:12;25.70;;;18.27;;
14040;SDS011;7095;51.388;6.196;2023-10-13T00:53:51;29.67;;;18.93;;
14040;SDS011;7095;51.388;6.196;2023-10-13T00:56:21;23.97;;;17.97;;
14040;SDS011;7095;51.388;6.196;2023-10-13T00:58:54;27.07;;;18.03;;
14040;SDS011;7095;51.388;6.196;2023-10-13T01:01:26;25.43;;;19.23;;
14040;SDS011;7095;51.388;6.196;2023-10-13T01:04:00;25.17;;;18.00;;
14040;SDS011;7095;51.388;6.196;2023-10-13T01:06:30;29.53;;;19.43;;
14040;SDS011;7095;51.388;6.196;2023-10-13T01:09:01;27.77;;;18.70;;
14040;SDS011;7095;51.388;6.196;2023-10-13T01:11:38;29.70;;;18.17;;
14040;SDS011;7095;51.388;6.196;2023-10-13T01:14:10;25.17;;;18.07;;
14040;SDS011;7095;51.388;6.196;2023-10-13T01:16:38;31.17;;;18.67;;
14040;SDS011;7095;51.388;6.196;2023-10-13T01:19:11;25.43;;;19.17;;
14040;SDS011;7095;51.388;6.196;2023-10-13T01:21:39;35.73;;;21.27;;
14040;SDS011;7095;51.388;6.196;2023-10-13T01:24:10;32.90;;;20.03;;
14040;SDS011;7095;51.388;6.196;2023-10-13T01:26:42;29.50;;;19.90;;
14040;SDS011;7095;51.388;6.196;2023-10-13T01:29:11;27.67;;;20.33;;
14040;SDS011;7095;51.388;6.196;2023-10-13T01:31:39;31.10;;;20.70;;
14040;SDS011;7095;51.388;6.196;2023-10-13T01:34:13;28.33;;;19.57;;
14040;SDS011;7095;51.388;6.196;2023-10-13T01:36:49;29.90;;;21.00;;
14040;SDS011;7095;51.388;6.196;2023-10-13T01:39:22;36.40;;;22.07;;
14040;SDS011;7095;51.388;6.196;2023-10-13T01:41:53;36.27;;;22.23;;
14040;SDS011;7095;51.388;6.196;2023-10-13T01:44:23;29.83;;;21.83;;
14040;SDS011;7095;51.388;6.196;2023-10-13T01:46:55;29.90;;;20.70;;
14040;SDS011;7095;51.388;6.196;2023-10-13T01:49:27;32.60;;;21.80;;
14040;SDS011;7095;51.388;6.196;2023-10-13T01:51:56;28.97;;;20.73;;
14040;SDS011;7095;51.388;6.196;2023-10-13T01:54:25;36.27;;;22.33;;
14040;SDS011;7095;51.388;6.196;2023-10-13T01:56:55;31.00;;;20.63;;
14040;SDS011;7095;51.388;6.196;2023-10-13T01:59:22;26.97;;;20.03;;
14040;SDS011;7095;51.388;6.196;2023-10-13T02:01:51;37.50;;;22.03;;
14040;SDS011;7095;51.388;6.196;2023-10-13T02:04:22;32.97;;;21.13;;
14040;SDS011;7095;51.388;6.196;2023-10-13T02:06:50;33.80;;;20.47;;
14040;SDS011;7095;51.388;6.196;2023-10-13T02:09:19;32.37;;;20.70;;
14040;SDS011;7095;51.388;6.196;2023-10-13T02:11:54;32.40;;;21.03;;
14040;SDS011;7095;51.388;6.196;2023-10-13T02:14:23;32.53;;;20.47;;
14040;SDS011;7095;51.388;6.196;2023-10-13T02:16:53;34.67;;;22.03;;
14040;SDS011;7095;51.388;6.196;2023-10-13T02:19:38;27.67;;;20.70;;
14040;SDS011;7095;51.388;6.196;2023-10-13T02:22:14;33.63;;;21.87;;
14040;SDS011;7095;51.388;6.196;2023-10-13T02:24:52;32.33;;;21.30;;
14040;SDS011;7095;51.388;6.196;2023-10-13T02:27:25;31.43;;;20.83;;
14040;SDS011;7095;51.388;6.196;2023-10-13T02:29:53;33.83;;;22.80;;
14040;SDS011;7095;51.388;6.196;2023-10-13T02:32:25;31.17;;;21.33;;
14040;SDS011;7095;51.388;6.196;2023-10-13T02:34:56;28.93;;;20.60;;
14040;SDS011;7095;51.388;6.196;2023-10-13T02:37:32;32.03;;;21.40;;
14040;SDS011;7095;51.388;6.196;2023-10-13T02:40:02;35.13;;;21.20;;
14040;SDS011;7095;51.388;6.196;2023-10-13T02:42:33;32.83;;;21.77;;
14040;SDS011;7095;51.388;6.196;2023-10-13T02:45:01;38.73;;;21.87;;
14040;SDS011;7095;51.388;6.196;2023-10-13T02:47:30;37.00;;;22.00;;
14040;SDS011;7095;51.388;6.196;2023-10-13T02:49:59;38.23;;;22.40;;
14040;SDS011;7095;51.388;6.196;2023-10-13T02:52:38;38.23;;;20.53;;
14040;SDS011;7095;51.388;6.196;2023-10-13T02:55:08;31.60;;;21.80;;
14040;SDS011;7095;51.388;6.196;2023-10-13T02:57:38;32.50;;;22.13;;
14040;SDS011;7095;51.388;6.196;2023-10-13T03:00:07;35.83;;;20.87;;
14040;SDS011;7095;51.388;6.196;2023-10-13T03:02:39;32.03;;;21.73;;
14040;SDS011;7095;51.388;6.196;2023-10-13T03:05:11;35.70;;;22.73;;
14040;SDS011;7095;51.388;6.196;2023-10-13T03:07:40;34.43;;;23.20;;
14040;SDS011;7095;51.388;6.196;2023-10-13T03:10:10;45.37;;;22.80;;
14040;SDS011;7095;51.388;6.196;2023-10-13T03:12:40;33.53;;;21.60;;
14040;SDS011;7095;51.388;6.196;2023-10-13T03:15:09;37.73;;;22.30;;
14040;SDS011;7095;51.388;6.196;2023-10-13T03:17:43;39.53;;;22.47;;
14040;SDS011;7095;51.388;6.196;2023-10-13T03:20:12;34.10;;;22.17;;
14040;SDS011;7095;51.388;6.196;2023-10-13T03:22:42;39.43;;;21.57;;
14040;SDS011;7095;51.388;6.196;2023-10-13T03:25:12;34.67;;;22.87;;
14040;SDS011;7095;51.388;6.196;2023-10-13T03:27:52;37.40;;;22.50;;
14040;SDS011;7095;51.388;6.196;2023-10-13T03:30:29;33.00;;;21.83;;
14040;SDS011;7095;51.388;6.196;2023-10-13T03:33:08;35.13;;;21.27;;
14040;SDS011;7095;51.388;6.196;2023-10-13T03:35:39;30.47;;;20.93;;
14040;SDS011;7095;51.388;6.196;2023-10-13T03:38:09;36.37;;;21.70;;
14040;SDS011;7095;51.388;6.196;2023-10-13T03:40:49;36.70;;;20.43;;
14040;SDS011;7095;51.388;6.196;2023-10-13T03:43:35;33.63;;;20.73;;
14040;SDS011;7095;51.388;6.196;2023-10-13T03:46:12;40.80;;;21.33;;
14040;SDS011;7095;51.388;6.196;2023-10-13T03:48:41;36.63;;;20.90;;
14040;SDS011;7095;51.388;6.196;2023-10-13T03:51:21;37.10;;;21.40;;
14040;SDS011;7095;51.388;6.196;2023-10-13T03:53:58;33.00;;;20.80;;
14040;SDS011;7095;51.388;6.196;2023-10-13T03:56:35;31.27;;;20.83;;
14040;SDS011;7095;51.388;6.196;2023-10-13T03:59:09;32.33;;;20.20;;
14040;SDS011;7095;51.388;6.196;2023-10-13T04:01:46;34.60;;;20.17;;
14040;SDS011;7095;51.388;6.196;2023-10-13T04:04:25;34.17;;;21.27;;
14040;SDS011;7095;51.388;6.196;2023-10-13T04:07:15;35.70;;;20.57;;
14040;SDS011;7095;51.388;6.196;2023-10-13T04:10:01;34.50;;;20.23;;
14040;SDS011;7095;51.388;6.196;2023-10-13T04:12:50;36.67;;;20.83;;
14040;SDS011;7095;51.388;6.196;2023-10-13T04:15:37;32.97;;;20.63;;
14040;SDS011;7095;51.388;6.196;2023-10-13T04:18:10;33.07;;;19.53;;
14040;SDS011;7095;51.388;6.196;2023-10-13T04:21:00;29.07;;;19.23;;
14040;SDS011;7095;51.388;6.196;2023-10-13T04:23:45;38.60;;;21.10;;
14040;SDS011;7095;51.388;6.196;2023-10-13T04:26:31;30.13;;;19.27;;
14040;SDS011;7095;51.388;6.196;2023-10-13T04:29:09;41.23;;;19.40;;
14040;SDS011;7095;51.388;6.196;2023-10-13T04:31:56;31.33;;;19.13;;
14040;SDS011;7095;51.388;6.196;2023-10-13T04:34:27;28.60;;;18.60;;
14040;SDS011;7095;51.388;6.196;2023-10-13T04:37:04;36.23;;;19.63;;
14040;SDS011;7095;51.388;6.196;2023-10-13T04:39:56;32.27;;;18.53;;
14040;SDS011;7095;51.388;6.196;2023-10-13T04:42:35;30.77;;;17.73;;
14040;SDS011;7095;51.388;6.196;2023-10-13T04:45:17;28.07;;;17.70;;
14040;SDS011;7095;51.388;6.196;2023-10-13T04:48:12;29.73;;;17.30;;
14040;SDS011;7095;51.388;6.196;2023-10-13T04:50:45;26.53;;;16.83;;
14040;SDS011;7095;51.388;6.196;2023-10-13T04:53:15;27.03;;;17.80;;
14040;SDS011;7095;51.388;6.196;2023-10-13T04:56:00;34.90;;;17.40;;
14040;SDS011;7095;51.388;6.196;2023-10-13T04:58:52;29.17;;;17.00;;
14040;SDS011;7095;51.388;6.196;2023-10-13T05:01:37;25.40;;;16.70;;
14040;SDS011;7095;51.388;6.196;2023-10-13T05:04:25;34.67;;;16.07;;
14040;SDS011;7095;51.388;6.196;2023-10-13T05:07:26;29.93;;;16.10;;
14040;SDS011;7095;51.388;6.196;2023-10-13T05:10:12;35.27;;;16.50;;
14040;SDS011;7095;51.388;6.196;2023-10-13T05:12:58;26.07;;;16.27;;
14040;SDS011;7095;51.388;6.196;2023-10-13T05:15:44;27.33;;;15.50;;
14040;SDS011;7095;51.388;6.196;2023-10-13T05:18:32;22.43;;;14.87;;
14040;SDS011;7095;51.388;6.196;2023-10-13T05:21:21;23.77;;;15.07;;
14040;SDS011;7095;51.388;6.196;2023-10-13T05:24:08;29.50;;;15.80;;
14040;SDS011;7095;51.388;6.196;2023-10-13T05:26:54;23.20;;;15.33;;
14040;SDS011;7095;51.388;6.196;2023-10-13T05:29:40;29.20;;;16.70;;
14040;SDS011;7095;51.388;6.196;2023-10-13T05:32:27;29.17;;;15.83;;
14040;SDS011;7095;51.388;6.196;2023-10-13T05:35:14;29.23;;;16.23;;
14040;SDS011;7095;51.388;6.196;2023-10-13T05:38:02;32.37;;;17.07;;
14040;SDS011;7095;51.388;6.196;2023-10-13T05:40:51;33.10;;;16.77;;
14040;SDS011;7095;51.388;6.196;2023-10-13T05:43:37;25.57;;;15.37;;
14040;SDS011;7095;51.388;6.196;2023-10-13T05:46:24;25.20;;;14.90;;
14040;SDS011;7095;51.388;6.196;2023-10-13T05:49:10;24.97;;;15.00;;
14040;SDS011;7095;51.388;6.196;2023-10-13T05:52:06;29.43;;;15.50;;
14040;SDS011;7095;51.388;6.196;2023-10-13T05:54:48;28.27;;;14.90;;
14040;SDS011;7095;51.388;6.196;2023-10-13T05:57:34;23.33;;;13.73;;
14040;SDS011;7095;51.388;6.196;2023-10-13T06:00:21;24.90;;;13.77;;
14040;SDS011;7095;51.388;6.196;2023-10-13T06:03:07;23.10;;;13.67;;
14040;SDS011;7095;51.388;6.196;2023-10-13T06:05:50;26.27;;;13.30;;
14040;SDS011;7095;51.388;6.196;2023-10-13T06:08:36;22.97;;;13.30;;
14040;SDS011;7095;51.388;6.196;2023-10-13T06:11:23;26.07;;;12.20;;
14040;SDS011;7095;51.388;6.196;2023-10-13T06:14:09;27.30;;;12.83;;
14040;SDS011;7095;51.388;6.196;2023-10-13T06:16:55;22.77;;;12.07;;
14040;SDS011;7095;51.388;6.196;2023-10-13T06:19:41;25.23;;;11.97;;
14040;SDS011;7095;51.388;6.196;2023-10-13T06:22:23;20.83;;;11.13;;
14040;SDS011;7095;51.388;6.196;2023-10-13T06:25:09;19.50;;;10.73;;
14040;SDS011;7095;51.388;6.196;2023-10-13T06:27:59;24.43;;;11.00;;
14040;SDS011;7095;51.388;6.196;2023-10-13T06:30:53;28.37;;;11.53;;
14040;SDS011;7095;51.388;6.196;2023-10-13T06:33:23;24.93;;;10.33;;
14040;SDS011;7095;51.388;6.196;2023-10-13T06:35:56;21.50;;;10.40;;
14040;SDS011;7095;51.388;6.196;2023-10-13T06:38:25;19.07;;;10.27;;
14040;SDS011;7095;51.388;6.196;2023-10-13T06:40:57;26.40;;;11.00;;
14040;SDS011;7095;51.388;6.196;2023-10-13T06:43:26;22.33;;;10.27;;
14040;SDS011;7095;51.388;6.196;2023-10-13T06:46:00;20.67;;;10.57;;
14040;SDS011;7095;51.388;6.196;2023-10-13T06:48:29;25.47;;;10.40;;
14040;SDS011;7095;51.388;6.196;2023-10-13T06:51:00;20.77;;;10.83;;
14040;SDS011;7095;51.388;6.196;2023-10-13T06:53:39;22.63;;;9.87;;
14040;SDS011;7095;51.388;6.196;2023-10-13T06:56:13;23.30;;;10.53;;
14040;SDS011;7095;51.388;6.196;2023-10-13T06:58:46;24.07;;;9.60;;
14040;SDS011;7095;51.388;6.196;2023-10-13T07:01:14;24.73;;;10.30;;
14040;SDS011;7095;51.388;6.196;2023-10-13T07:03:43;25.57;;;10.67;;
14040;SDS011;7095;51.388;6.196;2023-10-13T07:06:16;27.27;;;12.03;;
14040;SDS011;7095;51.388;6.196;2023-10-13T07:08:46;23.70;;;10.30;;
14040;SDS011;7095;51.388;6.196;2023-10-13T07:11:19;24.00;;;11.60;;
14040;SDS011;7095;51.388;6.196;2023-10-13T07:14:02;24.47;;;12.30;;
14040;SDS011;7095;51.388;6.196;2023-10-13T07:16:54;29.77;;;11.57;;
14040;SDS011;7095;51.388;6.196;2023-10-13T07:19:25;26.73;;;10.80;;
14040;SDS011;7095;51.388;6.196;2023-10-13T07:21:55;25.37;;;11.60;;
14040;SDS011;7095;51.388;6.196;2023-10-13T07:24:26;24.80;;;10.90;;
14040;SDS011;7095;51.388;6.196;2023-10-13T07:27:02;20.07;;;10.40;;
14040;SDS011;7095;51.388;6.196;2023-10-13T07:29:34;27.10;;;11.97;;
14040;SDS011;7095;51.388;6.196;2023-10-13T07:32:03;23.67;;;10.87;;
14040;SDS011;7095;51.388;6.196;2023-10-13T07:34:39;21.57;;;10.17;;
14040;SDS011;7095;51.388;6.196;2023-10-13T07:37:08;21.33;;;10.47;;
14040;SDS011;7095;51.388;6.196;2023-10-13T07:39:43;29.37;;;9.97;;
14040;SDS011;7095;51.388;6.196;2023-10-13T07:42:11;19.07;;;9.67;;
14040;SDS011;7095;51.388;6.196;2023-10-13T07:44:48;21.03;;;9.33;;
14040;SDS011;7095;51.388;6.196;2023-10-13T07:47:16;19.63;;;9.20;;
14040;SDS011;7095;51.388;6.196;2023-10-13T07:49:47;22.73;;;9.53;;
14040;SDS011;7095;51.388;6.196;2023-10-13T07:52:18;20.07;;;9.33;;
14040;SDS011;7095;51.388;6.196;2023-10-13T07:55:03;22.07;;;9.27;;
14040;SDS011;7095;51.388;6.196;2023-10-13T07:57:47;27.37;;;10.27;;
14040;SDS011;7095;51.388;6.196;2023-10-13T08:00:23;17.93;;;8.43;;
14040;SDS011;7095;51.388;6.196;2023-10-13T08:03:14;25.40;;;8.33;;
14040;SDS011;7095;51.388;6.196;2023-10-13T08:05:58;17.07;;;7.80;;
14040;SDS011;7095;51.388;6.196;2023-10-13T08:08:34;20.20;;;7.80;;
14040;SDS011;7095;51.388;6.196;2023-10-13T08:11:05;19.30;;;7.30;;
14040;SDS011;7095;51.388;6.196;2023-10-13T08:13:38;16.90;;;7.30;;
14040;SDS011;7095;51.388;6.196;2023-10-13T08:16:30;15.23;;;7.63;;
14040;SDS011;7095;51.388;6.196;2023-10-13T08:19:13;14.77;;;6.73;;
14040;SDS011;7095;51.388;6.196;2023-10-13T08:21:43;15.03;;;6.97;;
14040;SDS011;7095;51.388;6.196;2023-10-13T08:24:18;16.37;;;6.47;;
14040;SDS011;7095;51.388;6.196;2023-10-13T08:26:55;15.13;;;6.40;;
14040;SDS011;7095;51.388;6.196;2023-10-13T08:29:42;21.00;;;6.57;;
14040;SDS011;7095;51.388;6.196;2023-10-13T08:32:39;15.20;;;6.60;;
14040;SDS011;7095;51.388;6.196;2023-10-13T08:35:21;15.30;;;6.50;;
14040;SDS011;7095;51.388;6.196;2023-10-13T08:38:01;19.80;;;7.67;;
14040;SDS011;7095;51.388;6.196;2023-10-13T08:40:57;22.93;;;7.77;;
14040;SDS011;7095;51.388;6.196;2023-10-13T08:43:45;13.50;;;6.23;;
14040;SDS011;7095;51.388;6.196;2023-10-13T08:46:19;18.67;;;6.87;;
14040;SDS011;7095;51.388;6.196;2023-10-13T08:48:58;16.50;;;6.67;;
14040;SDS011;7095;51.388;6.196;2023-10-13T08:51:44;18.03;;;7.20;;
14040;SDS011;7095;51.388;6.196;2023-10-13T08:54:16;17.33;;;6.90;;
14040;SDS011;7095;51.388;6.196;2023-10-13T08:57:01;19.87;;;6.97;;
14040;SDS011;7095;51.388;6.196;2023-10-13T09:00:00;15.23;;;7.33;;
14040;SDS011;7095;51.388;6.196;2023-10-13T09:02:45;11.20;;;6.70;;
14040;SDS011;7095;51.388;6.196;2023-10-13T09:05:44;16.13;;;6.90;;
14040;SDS011;7095;51.388;6.196;2023-10-13T09:08:28;20.30;;;6.83;;
14040;SDS011;7095;51.388;6.196;2023-10-13T09:11:03;21.13;;;7.20;;
14040;SDS011;7095;51.388;6.196;2023-10-13T09:13:39;17.33;;;6.67;;
14040;SDS011;7095;51.388;6.196;2023-10-13T09:16:14;17.20;;;7.00;;
14040;SDS011;7095;51.388;6.196;2023-10-13T09:19:06;20.80;;;7.73;;
14040;SDS011;7095;51.388;6.196;2023-10-13T09:21:40;15.93;;;6.90;;
14040;SDS011;7095;51.388;6.196;2023-10-13T09:24:14;17.17;;;6.80;;
14040;SDS011;7095;51.388;6.196;2023-10-13T09:26:59;15.37;;;7.33;;
14040;SDS011;7095;51.388;6.196;2023-10-13T09:29:31;11.53;;;6.40;;
14040;SDS011;7095;51.388;6.196;2023-10-13T09:32:06;20.97;;;7.77;;
14040;SDS011;7095;51.388;6.196;2023-10-13T09:34:39;15.30;;;7.13;;
14040;SDS011;7095;51.388;6.196;2023-10-13T09:37:14;21.43;;;7.30;;
14040;SDS011;7095;51.388;6.196;2023-10-13T09:39:48;19.80;;;7.23;;
14040;SDS011;7095;51.388;6.196;2023-10-13T09:42:20;15.60;;;6.60;;
14040;SDS011;7095;51.388;6.196;2023-10-13T09:44:50;13.73;;;6.37;;
14040;SDS011;7095;51.388;6.196;2023-10-13T09:47:22;12.73;;;6.23;;
14040;SDS011;7095;51.388;6.196;2023-10-13T09:50:00;14.97;;;7.03;;
14040;SDS011;7095;51.388;6.196;2023-10-13T09:52:34;14.37;;;7.30;;
14040;SDS011;7095;51.388;6.196;2023-10-13T09:55:10;15.70;;;6.63;;
14040;SDS011;7095;51.388;6.196;2023-10-13T09:57:47;14.90;;;6.47;;
14040;SDS011;7095;51.388;6.196;2023-10-13T10:00:27;15.67;;;7.23;;
14040;SDS011;7095;51.388;6.196;2023-10-13T10:03:19;19.03;;;7.63;;
14040;SDS011;7095;51.388;6.196;2023-10-13T10:06:07;16.70;;;6.73;;
14040;SDS011;7095;51.388;6.196;2023-10-13T10:08:44;19.47;;;7.33;;
14040;SDS011;7095;51.388;6.196;2023-10-13T10:11:32;9.93;;;6.80;;
14040;SDS011;7095;51.388;6.196;2023-10-13T10:17:41;15.33;;;7.00;;
14040;SDS011;7095;51.388;6.196;2023-10-13T10:20:10;16.73;;;7.50;;
14040;SDS011;7095;51.388;6.196;2023-10-13T10:22:57;12.20;;;7.13;;
14040;SDS011;7095;51.388;6.196;2023-10-13T10:25:31;17.30;;;7.80;;
14040;SDS011;7095;51.388;6.196;2023-10-13T10:28:03;14.50;;;7.07;;
14040;SDS011;7095;51.388;6.196;2023-10-13T10:30:33;15.17;;;7.53;;
14040;SDS011;7095;51.388;6.196;2023-10-13T10:33:05;17.87;;;7.10;;
14040;SDS011;7095;51.388;6.196;2023-10-13T10:35:39;20.73;;;7.93;;
14040;SDS011;7095;51.388;6.196;2023-10-13T10:38:10;18.27;;;7.20;;
14040;SDS011;7095;51.388;6.196;2023-10-13T10:40:50;16.43;;;7.40;;
14040;SDS011;7095;51.388;6.196;2023-10-13T10:43:25;16.93;;;7.73;;
14040;SDS011;7095;51.388;6.196;2023-10-13T10:46:00;15.83;;;7.17;;
14040;SDS011;7095;51.388;6.196;2023-10-13T10:48:30;15.43;;;7.27;;
14040;SDS011;7095;51.388;6.196;2023-10-13T10:51:01;21.57;;;8.50;;
14040;SDS011;7095;51.388;6.196;2023-10-13T10:53:41;21.20;;;7.60;;
14040;SDS011;7095;51.388;6.196;2023-10-13T10:56:15;20.63;;;7.80;;
14040;SDS011;7095;51.388;6.196;2023-10-13T10:58:52;16.23;;;7.80;;
14040;SDS011;7095;51.388;6.196;2023-10-13T11:01:27;16.73;;;7.17;;
14040;SDS011;7095;51.388;6.196;2023-10-13T11:04:05;17.20;;;7.37;;
14040;SDS011;7095;51.388;6.196;2023-10-13T11:06:44;12.93;;;6.80;;
14040;SDS011;7095;51.388;6.196;2023-10-13T11:09:14;19.07;;;6.73;;
14040;SDS011;7095;51.388;6.196;2023-10-13T11:11:56;13.73;;;7.07;;
14040;SDS011;7095;51.388;6.196;2023-10-13T11:14:25;17.67;;;7.00;;
14040;SDS011;7095;51.388;6.196;2023-10-13T11:16:56;22.10;;;8.33;;
14040;SDS011;7095;51.388;6.196;2023-10-13T11:19:35;22.63;;;8.27;;
14040;SDS011;7095;51.388;6.196;2023-10-13T11:22:11;19.33;;;7.93;;
14040;SDS011;7095;51.388;6.196;2023-10-13T11:24:56;18.63;;;7.03;;
14040;SDS011;7095;51.388;6.196;2023-10-13T11:27:31;16.60;;;8.43;;
14040;SDS011;7095;51.388;6.196;2023-10-13T11:30:23;22.00;;;6.97;;
14040;SDS011;7095;51.388;6.196;2023-10-13T11:33:08;11.47;;;7.17;;
14040;SDS011;7095;51.388;6.196;2023-10-13T11:35:38;21.80;;;7.23;;
14040;SDS011;7095;51.388;6.196;2023-10-13T11:38:23;17.07;;;7.27;;
14040;SDS011;7095;51.388;6.196;2023-10-13T11:40:54;17.37;;;7.77;;
14040;SDS011;7095;51.388;6.196;2023-10-13T11:43:40;11.07;;;6.57;;
14040;SDS011;7095;51.388;6.196;2023-10-13T11:46:37;16.37;;;7.87;;
14040;SDS011;7095;51.388;6.196;2023-10-13T11:49:25;21.57;;;6.87;;
14040;SDS011;7095;51.388;6.196;2023-10-13T11:52:00;25.23;;;7.70;;
14040;SDS011;7095;51.388;6.196;2023-10-13T11:54:52;14.50;;;6.07;;
14040;SDS011;7095;51.388;6.196;2023-10-13T11:57:20;19.33;;;6.50;;
14040;SDS011;7095;51.388;6.196;2023-10-13T11:59:50;14.27;;;6.97;;
14040;SDS011;7095;51.388;6.196;2023-10-13T12:02:23;21.30;;;6.93;;
14040;SDS011;7095;51.388;6.196;2023-10-13T12:05:24;23.37;;;7.60;;
14040;SDS011;7095;51.388;6.196;2023-10-13T12:08:04;20.93;;;7.37;;
14040;SDS011;7095;51.388;6.196;2023-10-13T12:10:46;16.90;;;6.83;;
14040;SDS011;7095;51.388;6.196;2023-10-13T12:13:27;28.43;;;7.93;;
14040;SDS011;7095;51.388;6.196;2023-10-13T12:15:57;21.37;;;6.37;;
14040;SDS011;7095;51.388;6.196;2023-10-13T12:18:35;25.43;;;6.83;;
14040;SDS011;7095;51.388;6.196;2023-10-13T12:21:07;16.80;;;7.33;;
14040;SDS011;7095;51.388;6.196;2023-10-13T12:23:37;21.57;;;5.83;;
14040;SDS011;7095;51.388;6.196;2023-10-13T12:26:07;22.90;;;6.57;;
14040;SDS011;7095;51.388;6.196;2023-10-13T12:28:45;20.93;;;6.53;;
14040;SDS011;7095;51.388;6.196;2023-10-13T12:31:20;21.63;;;6.60;;
14040;SDS011;7095;51.388;6.196;2023-10-13T12:33:54;24.50;;;6.90;;
14040;SDS011;7095;51.388;6.196;2023-10-13T12:36:24;25.23;;;7.20;;
14040;SDS011;7095;51.388;6.196;2023-10-13T12:39:07;21.03;;;7.87;;
14040;SDS011;7095;51.388;6.196;2023-10-13T12:41:53;23.63;;;6.97;;
14040;SDS011;7095;51.388;6.196;2023-10-13T12:44:39;26.73;;;7.07;;
14040;SDS011;7095;51.388;6.196;2023-10-13T12:47:26;27.80;;;6.97;;
14040;SDS011;7095;51.388;6.196;2023-10-13T12:50:13;30.30;;;7.20;;
14040;SDS011;7095;51.388;6.196;2023-10-13T12:52:53;22.10;;;6.73;;
14040;SDS011;7095;51.388;6.196;2023-10-13T12:55:21;23.40;;;6.60;;
14040;SDS011;7095;51.388;6.196;2023-10-13T12:57:52;23.67;;;6.67;;
14040;SDS011;7095;51.388;6.196;2023-10-13T13:00:20;19.37;;;6.43;;
14040;SDS011;7095;51.388;6.196;2023-10-13T13:02:52;19.13;;;7.60;;
14040;SDS011;7095;51.388;6.196;2023-10-13T13:05:23;21.10;;;6.97;;
14040;SDS011;7095;51.388;6.196;2023-10-13T13:07:56;28.93;;;8.20;;
14040;SDS011;7095;51.388;6.196;2023-10-13T13:10:25;21.33;;;6.13;;
14040;SDS011;7095;51.388;6.196;2023-10-13T13:13:03;24.37;;;7.53;;
14040;SDS011;7095;51.388;6.196;2023-10-13T13:15:32;24.70;;;8.17;;
14040;SDS011;7095;51.388;6.196;2023-10-13T13:18:02;27.70;;;7.10;;
14040;SDS011;7095;51.388;6.196;2023-10-13T13:20:38;19.63;;;6.57;;
14040;SDS011;7095;51.388;6.196;2023-10-13T13:23:11;24.00;;;6.63;;
14040;SDS011;7095;51.388;6.196;2023-10-13T13:25:44;15.77;;;6.33;;
14040;SDS011;7095;51.388;6.196;2023-10-13T13:28:14;21.70;;;6.63;;
14040;SDS011;7095;51.388;6.196;2023-10-13T13:30:43;20.83;;;6.37;;
14040;SDS011;7095;51.388;6.196;2023-10-13T13:33:14;26.37;;;7.83;;
14040;SDS011;7095;51.388;6.196;2023-10-13T13:35:43;21.10;;;6.33;;
14040;SDS011;7095;51.388;6.196;2023-10-13T13:38:16;20.13;;;6.27;;
14040;SDS011;7095;51.388;6.196;2023-10-13T13:40:49;15.80;;;6.33;;
14040;SDS011;7095;51.388;6.196;2023-10-13T13:43:21;28.20;;;6.57;;
14040;SDS011;7095;51.388;6.196;2023-10-13T13:46:03;27.73;;;7.27;;
14040;SDS011;7095;51.388;6.196;2023-10-13T13:48:38;20.80;;;6.80;;
14040;SDS011;7095;51.388;6.196;2023-10-13T13:51:08;24.77;;;7.57;;
14040;SDS011;7095;51.388;6.196;2023-10-13T13:53:42;21.17;;;6.13;;
14040;SDS011;7095;51.388;6.196;2023-10-13T13:56:15;17.57;;;6.40;;
14040;SDS011;7095;51.388;6.196;2023-10-13T13:58:46;35.23;;;8.40;;
14040;SDS011;7095;51.388;6.196;2023-10-13T14:01:15;26.90;;;7.63;;
14040;SDS011;7095;51.388;6.196;2023-10-13T14:03:47;18.37;;;6.30;;
14040;SDS011;7095;51.388;6.196;2023-10-13T14:06:18;20.80;;;6.80;;
14040;SDS011;7095;51.388;6.196;2023-10-13T14:08:50;15.53;;;6.17;;
14040;SDS011;7095;51.388;6.196;2023-10-13T14:11:22;24.73;;;6.60;;
14040;SDS011;7095;51.388;6.196;2023-10-13T14:14:06;31.37;;;8.23;;
14040;SDS011;7095;51.388;6.196;2023-10-13T14:16:40;25.90;;;7.80;;
14040;SDS011;7095;51.388;6.196;2023-10-13T14:19:14;14.13;;;6.07;;
14040;SDS011;7095;51.388;6.196;2023-10-13T14:21:46;24.33;;;6.70;;
14040;SDS011;7095;51.388;6.196;2023-10-13T14:24:20;20.00;;;6.07;;
14040;SDS011;7095;51.388;6.196;2023-10-13T14:26:54;15.23;;;6.23;;
14040;SDS011;7095;51.388;6.196;2023-10-13T14:29:23;15.07;;;6.63;;
14040;SDS011;7095;51.388;6.196;2023-10-13T14:31:54;18.30;;;6.07;;
14040;SDS011;7095;51.388;6.196;2023-10-13T14:34:24;17.20;;;6.37;;
14040;SDS011;7095;51.388;6.196;2023-10-13T14:36:53;17.50;;;6.50;;
14040;SDS011;7095;51.388;6.196;2023-10-13T14:39:21;22.47;;;6.80;;
14040;SDS011;7095;51.388;6.196;2023-10-13T14:41:56;13.77;;;5.77;;
14040;SDS011;7095;51.388;6.196;2023-10-13T14:44:27;20.47;;;6.97;;
14040;SDS011;7095;51.388;6.196;2023-10-13T14:46:55;19.30;;;6.60;;
14040;SDS011;7095;51.388;6.196;2023-10-13T14:49:25;20.40;;;6.77;;
14040;SDS011;7095;51.388;6.196;2023-10-13T14:51:54;17.73;;;5.80;;
14040;SDS011;7095;51.388;6.196;2023-10-13T14:54:22;20.83;;;6.57;;
14040;SDS011;7095;51.388;6.196;2023-10-13T14:57:00;13.47;;;6.30;;
14040;SDS011;7095;51.388;6.196;2023-10-13T14:59:29;18.47;;;6.10;;
14040;SDS011;7095;51.388;6.196;2023-10-13T15:02:00;16.83;;;6.10;;
14040;SDS011;7095;51.388;6.196;2023-10-13T15:04:31;19.50;;;6.93;;
14040;SDS011;7095;51.388;6.196;2023-10-13T15:07:00;21.00;;;6.67;;
14040;SDS011;7095;51.388;6.196;2023-10-13T15:09:29;13.13;;;6.23;;
14040;SDS011;7095;51.388;6.196;2023-10-13T15:11:58;24.20;;;6.40;;
14040;SDS011;7095;51.388;6.196;2023-10-13T15:14:26;19.23;;;6.73;;
14040;SDS011;7095;51.388;6.196;2023-10-13T15:16:55;9.40;;;5.33;;
14040;SDS011;7095;51.388;6.196;2023-10-13T15:19:27;14.53;;;6.23;;
14040;SDS011;7095;51.388;6.196;2023-10-13T15:21:58;19.27;;;7.17;;
14040;SDS011;7095;51.388;6.196;2023-10-13T15:24:27;12.20;;;6.27;;
14040;SDS011;7095;51.388;6.196;2023-10-13T15:26:59;18.53;;;5.40;;
14040;SDS011;7095;51.388;6.196;2023-10-13T15:29:30;14.73;;;6.03;;
14040;SDS011;7095;51.388;6.196;2023-10-13T15:32:04;13.57;;;5.83;;
14040;SDS011;7095;51.388;6.196;2023-10-13T15:34:53;15.00;;;5.40;;
14040;SDS011;7095;51.388;6.196;2023-10-13T15:37:24;15.33;;;5.93;;
14040;SDS011;7095;51.388;6.196;2023-10-13T15:39:54;14.23;;;5.87;;